Time;durP1;ratioP1;P1;durP2;ratioP2;P2;SDS_P1;SDS_P2;PMS_P1;PMS_P2;Temp;Humidity;BMP_temperature;BMP_pressure;BME280_temperature;BME280_humidity;BME280_pressure;Samples;Min_cycle;Max_cycle;Signal;HPM_P1;HPM_P2
2023/07/14 04:12:24;;;;;;;11.40;5.93;;;;;;;19.24;100.00;100469.91;5572099;32;176402;-86
2023/07/14 04:15:28;;;;;;;8.00;5.60;;;;;;;19.30;100.00;100471.22;5561362;32;34648;-84
2023/07/14 04:18:31;;;;;;;5.82;5.12;;;;;;;19.37;100.00;100462.47;5558938;32;35155;-86
2023/07/14 04:21:34;;;;;;;6.25;5.03;;;;;;;19.46;100.00;100476.97;5555438;32;34275;-84
2023/07/14 04:24:36;;;;;;;5.82;4.72;;;;;;;19.54;100.00;100479.00;5592122;26;34111;-87
2023/07/14 04:27:39;;;;;;;5.10;4.60;;;;;;;19.68;100.00;100483.19;5563351;32;33667;-88
2023/07/14 04:30:42;;;;;;;7.32;4.85;;;;;;;19.80;100.00;100478.56;5563832;32;33702;-88
2023/07/14 04:33:48;;;;;;;8.30;5.12;;;;;;;19.83;100.00;100475.62;5563373;32;34853;-91
2023/07/14 04:36:51;;;;;;;8.00;4.90;;;;;;;20.04;100.00;100481.00;5562628;32;33629;-92
2023/07/14 04:39:53;;;;;;;6.75;4.82;;;;;;;20.15;100.00;100488.13;5563585;32;34110;-92
2023/07/14 04:42:56;;;;;;;5.47;4.85;;;;;;;20.42;100.00;100488.47;5563605;32;33731;-88
2023/07/14 04:45:59;;;;;;;5.37;4.87;;;;;;;20.24;100.00;100489.13;5563431;32;33742;-88
2023/07/14 04:49:01;;;;;;;7.47;5.43;;;;;;;20.30;100.00;100490.41;5563340;32;33284;-88
2023/07/14 04:52:08;;;;;;;6.78;6.05;;;;;;;20.49;100.00;100502.22;5568732;32;33831;-88
2023/07/14 04:55:10;;;;;;;8.75;5.60;;;;;;;20.55;100.00;100496.28;5565626;32;33832;-88
2023/07/14 04:58:16;;;;;;;6.95;5.82;;;;;;;20.56;100.00;100504.25;5574081;32;34055;-88
2023/07/14 05:01:19;;;;;;;6.53;5.62;;;;;;;20.76;100.00;100519.59;5573934;32;33727;-88
2023/07/14 05:04:22;;;;;;;7.37;5.50;;;;;;;20.93;100.00;100520.78;5577097;32;33816;-88
2023/07/14 05:07:25;;;;;;;7.87;6.40;;;;;;;21.11;100.00;100518.22;5563922;32;33472;-88
2023/07/14 05:10:31;;;;;;;9.57;7.90;;;;;;;21.38;100.00;100525.59;5561521;32;33680;-88
2023/07/14 05:13:34;;;;;;;9.05;7.57;;;;;;;21.27;100.00;100529.31;5566788;32;33795;-88
2023/07/14 05:16:38;;;;;;;11.27;7.55;;;;;;;21.31;100.00;100529.88;5564000;32;33867;-88
2023/07/14 05:19:41;;;;;;;8.02;6.47;;;;;;;21.27;100.00;100534.69;5549505;32;33523;-88
2023/07/14 05:22:46;;;;;;;8.00;6.37;;;;;;;21.28;100.00;100535.56;5535693;32;33605;-89
2023/07/14 05:25:50;;;;;;;8.13;5.80;;;;;;;21.53;100.00;100546.75;5534892;32;33797;-88
2023/07/14 05:28:53;;;;;;;10.10;6.45;;;;;;;21.64;100.00;100548.44;5550506;32;33786;-88
2023/07/14 05:31:55;;;;;;;9.25;6.57;;;;;;;21.60;100.00;100549.72;5551039;32;33790;-88
2023/07/14 05:34:58;;;;;;;10.07;6.87;;;;;;;21.60;100.00;100547.88;5551415;32;33661;-89
2023/07/14 05:38:01;;;;;;;9.60;6.00;;;;;;;21.63;100.00;100547.56;5551276;32;33671;-88
2023/07/14 05:44:45;;;;;;;5.78;5.25;;;;;;;23.80;100.00;100546.31;5393484;33;20106;-89
2023/07/14 05:47:48;;;;;;;6.68;4.80;;;;;;;25.74;93.93;100551.12;5398783;33;33803;-89
2023/07/14 05:50:51;;;;;;;6.45;4.65;;;;;;;26.75;87.00;100555.22;5399743;33;34368;-89
2023/07/14 05:53:53;;;;;;;5.30;4.70;;;;;;;27.20;85.72;100554.63;5404711;33;33916;-89
2023/07/14 05:56:56;;;;;;;5.95;4.10;;;;;;;28.42;78.90;100546.44;5412903;33;35965;-87
2023/07/14 05:59:59;;;;;;;5.60;4.20;;;;;;;27.69;76.87;100558.81;5408403;33;35458;-87
2023/07/14 06:03:02;;;;;;;6.53;4.47;;;;;;;28.60;72.66;100554.22;5400493;33;33482;-89
2023/07/14 06:06:05;;;;;;;4.80;4.40;;;;;;;28.92;70.04;100558.38;5402383;33;33486;-87
2023/07/14 06:09:09;;;;;;;4.70;4.20;;;;;;;29.98;65.67;100561.38;5408477;33;33978;-88
2023/07/14 06:12:12;;;;;;;4.70;3.85;;;;;;;30.02;62.56;100564.59;5399038;33;34541;-87
2023/07/14 06:15:15;;;;;;;7.05;4.00;;;;;;;30.07;59.73;100561.25;5400567;33;33605;-85
2023/07/14 06:18:18;;;;;;;3.60;3.30;;;;;;;29.69;59.53;100566.06;5399690;33;34469;-88
2023/07/14 06:21:21;;;;;;;3.90;3.50;;;;;;;30.49;55.83;100570.34;5399957;33;34491;-87
2023/07/14 06:24:24;;;;;;;4.12;3.72;;;;;;;30.53;54.43;100571.59;5403708;33;33830;-88
2023/07/14 06:27:31;;;;;;;4.97;3.67;;;;;;;31.06;54.23;100570.09;5400246;33;34241;-87
2023/07/14 06:30:35;;;;;;;3.58;3.20;;;;;;;31.28;52.70;100571.84;5426638;27;34241;-87
2023/07/14 06:33:38;;;;;;;5.75;3.40;;;;;;;33.16;46.52;100576.00;5435181;32;33944;-89
2023/07/14 06:36:41;;;;;;;3.67;3.03;;;;;;;33.55;43.38;100575.94;5436340;32;34113;-88
2023/07/14 06:39:43;;;;;;;4.78;3.15;;;;;;;32.92;43.63;100570.19;5422755;32;33394;-87
2023/07/14 06:42:46;;;;;;;6.32;3.80;;;;;;;30.86;48.28;100580.19;5435739;32;33757;-88
2023/07/14 06:45:49;;;;;;;5.30;3.60;;;;;;;29.50;51.50;100577.69;5436308;32;33581;-88
2023/07/14 06:48:52;;;;;;;3.62;3.30;;;;;;;28.73;55.28;100580.81;5436736;32;33397;-88
2023/07/14 06:52:07;;;;;;;5.05;3.20;;;;;;;27.71;57.40;100578.56;5436899;32;34243;-88
2023/07/14 06:55:10;;;;;;;6.28;3.78;;;;;;;27.26;62.00;100581.94;5437258;32;33742;-88
2023/07/14 06:58:13;;;;;;;4.00;3.65;;;;;;;26.51;64.21;100576.91;5435711;32;33704;-86
2023/07/14 07:01:17;;;;;;;4.05;3.50;;;;;;;27.00;63.07;100579.59;5436367;32;33819;-87
2023/07/14 07:04:19;;;;;;;5.28;3.50;;;;;;;27.67;60.90;100585.41;5435534;32;34408;-86
2023/07/14 07:07:22;;;;;;;7.65;3.72;;;;;;;27.35;57.07;100576.47;5435693;32;33799;-86
2023/07/14 07:10:25;;;;;;;4.10;3.70;;;;;;;27.59;59.27;100575.41;5435604;32;34410;-87
2023/07/14 07:13:28;;;;;;;7.05;3.30;;;;;;;27.08;61.42;100570.50;5435172;32;33820;-86
2023/07/14 07:16:30;;;;;;;4.65;3.45;;;;;;;27.16;62.25;100571.31;5436174;32;34724;-88
2023/07/14 07:19:33;;;;;;;4.03;3.35;;;;;;;27.25;56.22;100579.44;5436233;32;33461;-87
2023/07/14 07:22:37;;;;;;;3.87;3.58;;;;;;;27.04;58.25;100583.63;5435499;32;33883;-87
2023/07/14 07:25:48;;;;;;;5.90;3.70;;;;;;;27.11;60.70;100584.59;5435451;32;33599;-87
2023/07/14 07:28:50;;;;;;;8.27;3.70;;;;;;;27.82;61.15;100582.72;5435187;32;33724;-90
2023/07/14 07:31:53;;;;;;;3.80;3.50;;;;;;;28.12;56.51;100580.00;5436095;32;33752;-90
2023/07/14 07:35:00;;;;;;;4.05;3.50;;;;;;;27.22;59.53;100591.53;5425265;32;34238;-87
2023/07/14 07:38:03;;;;;;;14.70;3.60;;;;;;;27.98;56.83;100589.87;5435807;32;33856;-87
2023/07/14 07:41:06;;;;;;;4.03;3.30;;;;;;;27.97;56.16;100586.28;5434991;32;34994;-86
2023/07/14 07:44:09;;;;;;;5.53;3.58;;;;;;;27.36;56.64;100584.44;5436392;32;34505;-86
2023/07/14 07:47:12;;;;;;;5.12;3.40;;;;;;;27.15;56.30;100585.94;5443439;32;34289;-88
2023/07/14 07:50:15;;;;;;;11.70;3.58;;;;;;;27.73;56.20;100592.84;5442984;32;33337;-86
2023/07/14 07:53:18;;;;;;;4.05;3.58;;;;;;;27.78;56.37;100587.69;5434942;32;33412;-87
2023/07/14 07:56:21;;;;;;;3.78;2.90;;;;;;;28.31;54.59;100596.87;5435424;32;33852;-86
2023/07/14 07:59:24;;;;;;;3.58;3.30;;;;;;;28.28;53.74;100591.78;5435302;32;33898;-86
2023/07/14 08:02:27;;;;;;;5.87;3.35;;;;;;;29.14;50.84;100587.59;5436514;32;33919;-86
2023/07/14 08:05:30;;;;;;;5.47;3.40;;;;;;;29.18;50.21;100587.00;5434918;32;34288;-87
2023/07/14 08:08:33;;;;;;;3.87;3.15;;;;;;;28.59;50.65;100586.13;5435773;32;34394;-87
2023/07/14 08:11:36;;;;;;;3.47;3.17;;;;;;;28.95;50.94;100576.25;5445667;32;34241;-87
2023/07/14 08:14:56;;;;;;;3.53;2.90;;;;;;;28.95;50.82;100575.44;5450452;32;33655;-87
2023/07/14 08:17:59;;;;;;;3.85;3.40;;;;;;;29.65;49.87;100578.41;5440986;32;35361;-87
2023/07/14 08:21:02;;;;;;;3.70;3.40;;;;;;;29.38;48.07;100585.50;5436473;32;34373;-87
2023/07/14 08:24:06;;;;;;;3.10;2.90;;;;;;;29.76;47.53;100581.66;5434848;32;33933;-87
2023/07/14 08:27:09;;;;;;;5.68;2.95;;;;;;;30.23;47.76;100573.78;5434602;32;33889;-87
2023/07/14 08:30:12;;;;;;;5.22;3.08;;;;;;;30.56;47.18;100581.28;5441950;32;33819;-87
2023/07/14 08:33:14;;;;;;;3.45;3.10;;;;;;;30.90;46.08;100582.28;5439193;32;33507;-87
2023/07/14 08:36:17;;;;;;;5.60;3.50;;;;;;;31.73;43.55;100583.00;5440960;32;33965;-87
2023/07/14 08:39:20;;;;;;;3.92;3.20;;;;;;;31.94;40.39;100592.09;5438850;32;33478;-87
2023/07/14 08:42:31;;;;;;;4.05;3.33;;;;;;;31.88;41.83;100587.47;5435262;32;34558;-87
2023/07/14 08:45:38;;;;;;;3.85;3.50;;;;;;;31.87;40.71;100589.34;5433708;32;33734;-87
2023/07/14 08:48:49;;;;;;;5.45;3.45;;;;;;;31.83;41.95;100579.00;5434054;32;33928;-87
2023/07/14 08:51:59;;;;;;;5.18;3.80;;;;;;;31.62;42.77;100580.91;5434841;32;33740;-87
2023/07/14 08:55:22;;;;;;;5.35;3.60;;;;;;;31.35;43.25;100580.91;5434188;32;34902;-86
2023/07/14 08:58:28;;;;;;;3.90;3.50;;;;;;;32.02;40.60;100584.69;5435544;32;33444;-90
2023/07/14 09:01:42;;;;;;;5.32;3.45;;;;;;;32.15;41.93;100570.94;5436800;32;33579;-90
2023/07/14 09:04:55;;;;;;;5.10;3.55;;;;;;;31.98;40.38;100584.28;5436768;32;33480;-87
2023/07/14 09:07:58;;;;;;;4.28;3.40;;;;;;;31.92;41.85;100585.13;5437199;32;33788;-87
2023/07/14 09:11:22;;;;;;;6.12;3.22;;;;;;;33.07;38.82;100583.66;5442841;32;33959;-87
2023/07/14 09:14:28;;;;;;;3.67;3.30;;;;;;;34.14;36.97;100588.50;5446188;32;33763;-87
2023/07/14 09:17:49;;;;;;;3.92;3.50;;;;;;;33.57;37.90;100583.94;5438118;32;33748;-86
2023/07/14 09:20:58;;;;;;;5.85;3.55;;;;;;;34.04;35.98;100593.69;5436301;32;33871;-87
2023/07/14 09:24:15;;;;;;;4.45;3.35;;;;;;;33.48;38.96;100589.69;5437058;32;34828;-87
2023/07/14 09:27:23;;;;;;;5.12;3.42;;;;;;;34.28;36.10;100594.69;5436819;32;34954;-87
2023/07/14 09:30:28;;;;;;;5.25;3.42;;;;;;;34.01;36.60;100593.06;5436559;32;33563;-87
2023/07/14 09:33:46;;;;;;;3.85;3.55;;;;;;;35.52;34.30;100593.63;5436451;32;34011;-87
2023/07/14 09:36:49;;;;;;;6.00;3.58;;;;;;;35.33;33.58;100590.97;5435885;32;34554;-87
2023/07/14 09:40:02;;;;;;;3.75;3.20;;;;;;;35.40;34.51;100586.22;5437402;32;34554;-87
2023/07/14 09:43:06;;;;;;;3.70;3.40;;;;;;;35.27;33.93;100587.25;5436980;32;33981;-87
2023/07/14 09:46:17;;;;;;;3.60;3.30;;;;;;;34.77;34.79;100578.22;5437165;32;34042;-86
2023/07/14 09:49:44;;;;;;;3.95;3.62;;;;;;;35.23;34.58;100571.44;5437829;32;33782;-91
2023/07/14 09:52:57;;;;;;;4.62;3.20;;;;;;;36.17;32.78;100580.84;5437366;32;34562;-87
2023/07/14 09:56:07;;;;;;;4.18;3.45;;;;;;;35.70;32.16;100573.44;5435923;32;34603;-87
2023/07/14 09:59:23;;;;;;;3.67;3.30;;;;;;;35.81;31.80;100569.81;5437339;32;34631;-87
2023/07/14 10:02:28;;;;;;;4.60;3.42;;;;;;;35.25;31.89;100574.78;5436545;32;34406;-87
2023/07/14 10:05:49;;;;;;;7.40;3.50;;;;;;;35.43;32.35;100571.94;5435933;32;34449;-88
2023/07/14 10:08:56;;;;;;;3.60;3.30;;;;;;;35.51;32.33;100575.41;5436324;32;34430;-88
2023/07/14 10:12:05;;;;;;;6.82;3.37;;;;;;;35.16;32.86;100561.34;5437093;32;33516;-87
2023/07/14 10:15:30;;;;;;;3.80;3.00;;;;;;;34.73;33.10;100556.91;5436269;32;34930;-87
2023/07/14 10:18:55;;;;;;;4.15;3.75;;;;;;;34.86;32.90;100564.09;5436263;32;33733;-87
2023/07/14 10:22:05;;;;;;;4.00;3.50;;;;;;;34.37;34.11;100543.75;5435949;32;34684;-87
2023/07/14 10:25:16;;;;;;;4.15;3.50;;;;;;;34.40;34.37;100543.28;5435420;32;34699;-90
2023/07/14 10:28:27;;;;;;;6.45;3.87;;;;;;;34.22;33.76;100546.91;5435454;32;34498;-87
2023/07/14 10:32:10;;;;;;;4.93;3.60;;;;;;;34.24;33.34;100546.69;5436407;32;33860;-86
2023/07/14 10:35:25;;;;;;;12.80;3.80;;;;;;;34.38;32.56;100547.34;5397876;32;33664;-86
2023/07/14 10:38:35;;;;;;;11.00;4.18;;;;;;;37.21;29.51;100545.00;5398827;33;34079;-86
2023/07/14 10:41:42;;;;;;;4.50;3.70;;;;;;;38.14;28.45;100551.09;5399144;32;33697;-86
2023/07/14 10:44:45;;;;;;;3.85;3.35;;;;;;;35.91;30.15;100547.12;5398727;33;33595;-86
2023/07/14 10:47:53;;;;;;;3.42;3.12;;;;;;;34.90;31.38;100540.53;5397785;33;33674;-86
2023/07/14 10:51:22;;;;;;;4.28;3.50;;;;;;;34.24;32.46;100536.50;5397609;33;34636;-86
2023/07/14 10:54:52;;;;;;;3.95;3.55;;;;;;;33.86;33.92;100532.06;5396101;33;34612;-87
2023/07/14 10:58:00;;;;;;;3.95;3.55;;;;;;;33.77;34.12;100533.44;5396775;33;34442;-86
2023/07/14 11:01:12;;;;;;;5.35;3.78;;;;;;;33.26;34.05;100531.53;5377741;33;34011;-92
2023/07/14 11:04:42;;;;;;;7.80;3.85;;;;;;;32.89;34.61;100517.63;5377805;33;33749;-87
2023/07/14 11:07:44;;;;;;;4.53;3.65;;;;;;;32.35;36.58;100521.47;5383992;32;33648;-87
2023/07/14 11:10:58;;;;;;;4.75;3.22;;;;;;;32.75;37.28;100519.59;5436687;32;34463;-87
2023/07/14 11:14:18;;;;;;;4.55;3.35;;;;;;;33.41;33.98;100514.69;5440021;32;34384;-87
2023/07/14 11:17:57;;;;;;;3.47;3.17;;;;;;;32.96;34.76;100504.69;5436871;32;34239;-87
2023/07/14 11:21:06;;;;;;;6.47;4.12;;;;;;;32.99;35.71;100508.91;5435816;32;33591;-87
2023/07/14 11:24:42;;;;;;;4.62;3.25;;;;;;;31.40;40.26;100495.31;5436293;32;33612;-87
2023/07/14 11:27:53;;;;;;;4.25;3.53;;;;;;;31.19;39.77;100497.22;5436098;32;34301;-87
2023/07/14 11:31:00;;;;;;;3.65;3.35;;;;;;;30.71;40.62;100504.50;5439344;32;34207;-90
2023/07/14 11:34:13;;;;;;;4.53;3.28;;;;;;;30.19;41.02;100499.50;5449211;32;34648;-91
2023/07/14 11:37:31;;;;;;;5.12;3.20;;;;;;;30.49;41.84;100501.06;5442563;32;33815;-88
2023/07/14 11:40:39;;;;;;;5.75;3.37;;;;;;;30.62;41.22;100503.81;5435422;32;33567;-87
2023/07/14 11:43:43;;;;;;;3.90;3.30;;;;;;;31.23;39.15;100493.00;5435759;32;34689;-87
2023/07/14 11:46:49;;;;;;;3.70;3.40;;;;;;;31.33;39.08;100495.34;5445005;32;33915;-86
2023/07/14 11:49:53;;;;;;;5.22;3.50;;;;;;;31.42;39.87;100491.31;5447373;32;34263;-87
2023/07/14 11:53:05;;;;;;;4.85;3.33;;;;;;;31.79;38.33;100487.25;5437772;32;33949;-87
2023/07/14 11:56:23;;;;;;;5.87;3.37;;;;;;;31.83;37.10;100496.75;5437410;32;34165;-87
2023/07/14 11:59:30;;;;;;;3.65;3.20;;;;;;;30.92;40.54;100481.59;5436585;32;34266;-87
2023/07/14 12:02:46;;;;;;;3.25;2.87;;;;;;;30.26;40.29;100481.22;5438491;32;34079;-87
2023/07/14 12:06:14;;;;;;;5.87;3.40;;;;;;;30.19;41.35;100480.34;5441254;32;33612;-86
2023/07/14 12:09:18;;;;;;;4.40;3.33;;;;;;;30.53;41.09;100480.44;5438670;32;34080;-86
2023/07/14 12:12:21;;;;;;;4.53;3.00;;;;;;;30.01;41.23;100480.84;5442221;32;33959;-86
2023/07/14 12:15:46;;;;;;;12.70;3.20;;;;;;;30.21;42.46;100478.25;5440151;32;34869;-86
2023/07/14 12:18:59;;;;;;;3.62;3.28;;;;;;;30.95;40.79;100479.47;5437445;32;34250;-86
2023/07/14 12:22:10;;;;;;;5.00;3.20;;;;;;;30.83;39.21;100468.31;5441117;32;34462;-86
2023/07/14 12:25:15;;;;;;;4.85;3.33;;;;;;;31.35;40.25;100468.56;5442283;32;34123;-86
2023/07/14 12:28:30;;;;;;;3.70;3.42;;;;;;;31.39;40.76;100460.75;5442273;32;34076;-86
2023/07/14 12:31:35;;;;;;;4.47;3.10;;;;;;;31.87;37.04;100465.09;5439794;32;35235;-86
2023/07/14 12:34:37;;;;;;;5.47;3.35;;;;;;;31.40;38.91;100451.47;5440190;32;33827;-86
2023/07/14 12:37:40;;;;;;;4.68;3.67;;;;;;;31.37;38.36;100458.22;5438602;32;33934;-85
2023/07/14 12:40:45;;;;;;;5.47;3.47;;;;;;;31.03;38.98;100454.66;5440207;32;34059;-85
2023/07/14 12:43:51;;;;;;;6.32;3.20;;;;;;;31.25;37.85;100457.16;5439437;32;34412;-86
2023/07/14 12:46:54;;;;;;;3.60;3.30;;;;;;;31.46;39.02;100451.47;5437543;32;33732;-86
2023/07/14 12:49:58;;;;;;;5.10;3.50;;;;;;;31.66;37.49;100457.94;5439961;32;34250;-86
2023/07/14 12:53:01;;;;;;;4.00;3.20;;;;;;;31.95;37.22;100453.91;5451481;32;33861;-86
2023/07/14 12:56:10;;;;;;;4.03;3.37;;;;;;;32.03;36.67;100450.09;5457884;32;34438;-85
2023/07/14 12:59:17;;;;;;;4.90;3.30;;;;;;;31.86;36.90;100441.47;5454141;32;33783;-87
2023/07/14 13:02:21;;;;;;;4.60;3.33;;;;;;;32.20;36.76;100442.19;5436373;32;34434;-87
2023/07/14 13:05:33;;;;;;;3.37;3.17;;;;;;;32.33;36.52;100441.25;5436435;32;34546;-87
2023/07/14 13:08:36;;;;;;;6.07;3.80;;;;;;;31.99;36.93;100437.84;5436404;32;33775;-87
2023/07/14 13:11:40;;;;;;;4.70;3.30;;;;;;;30.62;39.24;100431.84;5438216;32;33647;-87
2023/07/14 13:14:49;;;;;;;4.95;3.40;;;;;;;30.91;39.04;100444.31;5438534;32;34149;-87
2023/07/14 13:17:55;;;;;;;5.00;3.30;;;;;;;31.09;39.95;100436.50;5436060;32;35035;-87
2023/07/14 13:21:02;;;;;;;3.33;3.00;;;;;;;31.33;38.65;100435.06;5438966;32;33780;-87
2023/07/14 13:24:25;;;;;;;9.07;3.30;;;;;;;31.56;38.09;100431.84;5443284;32;35083;-86
2023/07/14 13:27:28;;;;;;;3.55;3.28;;;;;;;31.38;38.64;100420.72;5442440;32;33620;-89
2023/07/14 13:30:31;;;;;;;3.50;3.20;;;;;;;31.21;37.64;100421.13;5440184;32;33514;-89
2023/07/14 13:33:34;;;;;;;5.62;3.50;;;;;;;30.77;40.16;100418.00;5439533;32;33732;-91
2023/07/14 13:36:38;;;;;;;6.50;3.55;;;;;;;30.37;38.80;100410.53;5435837;32;33868;-88
2023/07/14 13:39:43;;;;;;;3.55;3.25;;;;;;;30.02;38.99;100408.72;5439257;32;34975;-86
2023/07/14 13:42:49;;;;;;;5.25;3.10;;;;;;;30.56;38.99;100406.13;5440188;32;33781;-85
2023/07/14 13:46:06;;;;;;;3.87;2.92;;;;;;;30.76;37.83;100399.84;5440859;32;33609;-86
2023/07/14 13:49:09;;;;;;;4.47;2.90;;;;;;;30.51;36.23;100403.16;5439878;32;33672;-85
2023/07/14 13:52:14;;;;;;;4.25;3.33;;;;;;;30.90;37.54;100401.56;5439149;32;33812;-85
2023/07/14 13:55:19;;;;;;;3.05;2.85;;;;;;;31.32;36.47;100409.53;5439721;32;33764;-85
2023/07/14 13:58:22;;;;;;;5.12;3.10;;;;;;;30.82;37.41;100411.88;5439847;32;34865;-85
2023/07/14 14:01:27;;;;;;;3.03;2.78;;;;;;;30.84;36.54;100417.97;5426273;32;33634;-85
2023/07/14 14:04:31;;;;;;;5.40;2.62;;;;;;;30.96;35.49;100410.81;5429313;32;34120;-85
2023/07/14 14:07:34;;;;;;;4.20;2.90;;;;;;;31.05;35.41;100403.22;5438597;32;33870;-85
2023/07/14 14:10:37;;;;;;;4.45;2.60;;;;;;;31.23;34.06;100412.69;5439453;32;33781;-85
2023/07/14 14:13:40;;;;;;;3.37;3.08;;;;;;;31.32;34.38;100406.81;5439308;32;34564;-85
2023/07/14 14:16:46;;;;;;;3.60;3.20;;;;;;;31.31;33.29;100404.28;5440022;32;34566;-85
2023/07/14 14:19:50;;;;;;;8.98;3.03;;;;;;;30.93;34.08;100397.56;5440092;32;33824;-85
2023/07/14 14:22:54;;;;;;;3.55;2.80;;;;;;;30.79;34.31;100393.97;5439301;32;34188;-85
2023/07/14 14:25:56;;;;;;;3.53;2.92;;;;;;;30.80;34.71;100381.97;5439548;32;33867;-85
2023/07/14 14:28:59;;;;;;;4.43;3.12;;;;;;;30.56;35.74;100384.22;5439783;32;33771;-85
2023/07/14 14:32:02;;;;;;;3.50;2.90;;;;;;;29.87;37.02;100384.28;5439475;32;34772;-85
2023/07/14 14:35:24;;;;;;;4.32;2.87;;;;;;;30.15;36.96;100385.22;5437495;32;34750;-87
2023/07/14 14:38:31;;;;;;;3.97;2.70;;;;;;;30.43;36.64;100385.09;5436255;32;33937;-88
2023/07/14 14:41:37;;;;;;;3.28;2.85;;;;;;;30.78;34.50;100389.56;5438513;32;33997;-86
2023/07/14 14:44:39;;;;;;;4.12;3.03;;;;;;;30.28;36.94;100377.06;5439365;32;33537;-86
2023/07/14 14:47:42;;;;;;;3.30;3.00;;;;;;;30.03;37.73;100366.66;5439306;32;34120;-86
2023/07/14 14:50:48;;;;;;;2.92;2.65;;;;;;;30.16;38.35;100374.06;5439180;32;34399;-86
2023/07/14 14:53:52;;;;;;;3.30;3.00;;;;;;;30.16;38.40;100373.25;5439573;32;33954;-86
2023/07/14 14:56:54;;;;;;;3.37;2.95;;;;;;;29.97;37.89;100368.31;5439291;32;34208;-86
2023/07/14 14:59:57;;;;;;;3.28;2.75;;;;;;;30.07;38.33;100358.87;5440179;32;34561;-86
2023/07/14 15:02:59;;;;;;;3.90;2.83;;;;;;;30.33;37.85;100363.59;5440679;32;34114;-86
2023/07/14 15:06:03;;;;;;;3.30;2.83;;;;;;;30.42;37.87;100366.94;5441449;32;34626;-85
2023/07/14 15:09:05;;;;;;;4.70;2.80;;;;;;;30.29;38.59;100362.31;5442069;32;33852;-90
